sensor_id;sensor_type;location;lat;lon;timestamp;pressure;altitude;pressure_sealevel;temperature;humidity
40372;BME280;28564;53.346;-6.554;2023-03-04T00:01:01;102597.23;;;9.10;40.96
40372;BME280;28564;53.346;-6.554;2023-03-04T00:03:29;102599.04;;;9.09;40.96
40372;BME280;28564;53.346;-6.554;2023-03-04T00:05:56;102595.40;;;9.24;40.98
40372;BME280;28564;53.346;-6.554;2023-03-04T00:08:23;102593.97;;;8.98;41.02
40372;BME280;28564;53.346;-6.554;2023-03-04T00:10:50;102592.10;;;9.43;41.08
40372;BME280;28564;53.346;-6.554;2023-03-04T00:13:18;102592.06;;;8.93;41.09
40372;BME280;28564;53.346;-6.554;2023-03-04T00:15:45;102590.07;;;9.41;41.15
40372;BME280;28564;53.346;-6.554;2023-03-04T00:18:13;102589.61;;;9.42;41.14
40372;BME280;28564;53.346;-6.554;2023-03-04T00:20:40;102591.10;;;9.40;41.13
40372;BME280;28564;53.346;-6.554;2023-03-04T00:23:07;102587.94;;;9.39;41.20
40372;BME280;28564;53.346;-6.554;2023-03-04T00:25:34;102588.59;;;9.13;41.22
40372;BME280;28564;53.346;-6.554;2023-03-04T00:28:02;102587.30;;;9.40;41.25
40372;BME280;28564;53.346;-6.554;2023-03-04T00:30:29;102584.54;;;9.39;41.26
40372;BME280;28564;53.346;-6.554;2023-03-04T00:32:56;102585.37;;;9.12;41.26
40372;BME280;28564;53.346;-6.554;2023-03-04T00:35:23;102584.29;;;9.11;41.24
40372;BME280;28564;53.346;-6.554;2023-03-04T00:37:51;102580.78;;;9.34;41.29
40372;BME280;28564;53.346;-6.554;2023-03-04T00:40:18;102579.26;;;9.33;41.33
40372;BME280;28564;53.346;-6.554;2023-03-04T00:42:45;102578.10;;;8.83;41.35
40372;BME280;28564;53.346;-6.554;2023-03-04T00:45:13;102573.73;;;9.03;41.40
40372;BME280;28564;53.346;-6.554;2023-03-04T00:47:40;102572.93;;;9.28;41.43
40372;BME280;28564;53.346;-6.554;2023-03-04T00:50:09;102570.51;;;9.03;41.46
40372;BME280;28564;53.346;-6.554;2023-03-04T00:52:36;102570.53;;;8.82;41.44
40372;BME280;28564;53.346;-6.554;2023-03-04T00:55:05;102570.49;;;9.03;41.43
40372;BME280;28564;53.346;-6.554;2023-03-04T00:57:32;102571.41;;;8.77;41.37
40372;BME280;28564;53.346;-6.554;2023-03-04T01:00:00;102574.76;;;9.24;41.30
40372;BME280;28564;53.346;-6.554;2023-03-04T01:02:27;102577.33;;;9.24;41.28
40372;BME280;28564;53.346;-6.554;2023-03-04T01:04:54;102578.55;;;9.24;41.30
40372;BME280;28564;53.346;-6.554;2023-03-04T01:07:22;102583.75;;;9.24;41.22
40372;BME280;28564;53.346;-6.554;2023-03-04T01:09:49;102584.76;;;9.22;41.25
40372;BME280;28564;53.346;-6.554;2023-03-04T01:12:16;102584.16;;;9.21;41.29
40372;BME280;28564;53.346;-6.554;2023-03-04T01:14:44;102588.27;;;9.22;41.32
40372;BME280;28564;53.346;-6.554;2023-03-04T01:17:11;102591.11;;;9.25;41.33
40372;BME280;28564;53.346;-6.554;2023-03-04T01:19:38;102597.65;;;9.27;41.34
40372;BME280;28564;53.346;-6.554;2023-03-04T01:22:06;102598.74;;;9.28;41.33
40372;BME280;28564;53.346;-6.554;2023-03-04T01:24:33;102597.20;;;9.30;41.32
40372;BME280;28564;53.346;-6.554;2023-03-04T01:27:01;102596.54;;;9.32;41.30
40372;BME280;28564;53.346;-6.554;2023-03-04T01:29:28;102593.42;;;9.32;41.24
40372;BME280;28564;53.346;-6.554;2023-03-04T01:31:55;102591.50;;;9.03;41.10
40372;BME280;28564;53.346;-6.554;2023-03-04T01:34:23;102593.17;;;9.23;41.17
40372;BME280;28564;53.346;-6.554;2023-03-04T01:36:50;102590.82;;;9.20;41.28
40372;BME280;28564;53.346;-6.554;2023-03-04T01:39:17;102588.18;;;9.21;41.30
40372;BME280;28564;53.346;-6.554;2023-03-04T01:41:44;102586.97;;;9.22;41.30
40372;BME280;28564;53.346;-6.554;2023-03-04T01:44:12;102585.75;;;8.96;41.25
40372;BME280;28564;53.346;-6.554;2023-03-04T01:46:41;102581.65;;;9.23;41.21
40372;BME280;28564;53.346;-6.554;2023-03-04T01:49:12;102582.48;;;9.21;41.16
40372;BME280;28564;53.346;-6.554;2023-03-04T01:51:41;102578.92;;;9.20;41.20
40372;BME280;28564;53.346;-6.554;2023-03-04T01:54:09;102578.55;;;9.22;41.19
40372;BME280;28564;53.346;-6.554;2023-03-04T01:56:38;102577.39;;;9.21;41.13
40372;BME280;28564;53.346;-6.554;2023-03-04T01:59:08;102572.79;;;9.20;41.09
40372;BME280;28564;53.346;-6.554;2023-03-04T02:01:37;102569.14;;;9.18;41.09
40372;BME280;28564;53.346;-6.554;2023-03-04T02:04:04;102565.14;;;9.17;41.07
40372;BME280;28564;53.346;-6.554;2023-03-04T02:06:33;102560.89;;;9.17;41.09
40372;BME280;28564;53.346;-6.554;2023-03-04T02:09:00;102561.98;;;9.16;41.03
40372;BME280;28564;53.346;-6.554;2023-03-04T02:11:27;102564.10;;;8.87;40.99
40372;BME280;28564;53.346;-6.554;2023-03-04T02:13:54;102564.60;;;8.84;40.97
40372;BME280;28564;53.346;-6.554;2023-03-04T02:16:23;102563.00;;;9.08;40.93
40372;BME280;28564;53.346;-6.554;2023-03-04T02:18:50;102562.12;;;9.07;40.90
40372;BME280;28564;53.346;-6.554;2023-03-04T02:21:23;102561.91;;;9.04;40.93
40372;BME280;28564;53.346;-6.554;2023-03-04T02:23:58;102566.01;;;9.03;40.87
40372;BME280;28564;53.346;-6.554;2023-03-04T02:26:27;102564.53;;;9.02;40.83
40372;BME280;28564;53.346;-6.554;2023-03-04T02:28:57;102567.51;;;9.01;40.80
40372;BME280;28564;53.346;-6.554;2023-03-04T02:31:26;102568.98;;;9.00;40.82
40372;BME280;28564;53.346;-6.554;2023-03-04T02:33:56;102566.11;;;9.01;40.75
40372;BME280;28564;53.346;-6.554;2023-03-04T02:36:24;102563.02;;;8.99;40.69
40372;BME280;28564;53.346;-6.554;2023-03-04T02:38:53;102565.28;;;8.98;40.71
40372;BME280;28564;53.346;-6.554;2023-03-04T02:41:23;102561.79;;;8.99;40.67
40372;BME280;28564;53.346;-6.554;2023-03-04T02:43:54;102559.54;;;8.98;40.66
40372;BME280;28564;53.346;-6.554;2023-03-04T02:46:22;102557.98;;;8.76;40.63
40372;BME280;28564;53.346;-6.554;2023-03-04T02:48:50;102555.74;;;9.05;40.59
40372;BME280;28564;53.346;-6.554;2023-03-04T02:51:18;102554.06;;;9.03;40.57
40372;BME280;28564;53.346;-6.554;2023-03-04T02:53:46;102554.45;;;9.00;40.58
40372;BME280;28564;53.346;-6.554;2023-03-04T02:56:13;102560.77;;;9.00;40.55
40372;BME280;28564;53.346;-6.554;2023-03-04T02:58:40;102559.05;;;8.99;40.54
40372;BME280;28564;53.346;-6.554;2023-03-04T03:01:08;102557.67;;;8.99;40.46
40372;BME280;28564;53.346;-6.554;2023-03-04T03:03:35;102557.36;;;8.95;40.45
40372;BME280;28564;53.346;-6.554;2023-03-04T03:06:02;102559.09;;;8.68;40.51
40372;BME280;28564;53.346;-6.554;2023-03-04T03:08:29;102558.43;;;8.94;40.48
40372;BME280;28564;53.346;-6.554;2023-03-04T03:10:57;102560.71;;;8.95;40.48
40372;BME280;28564;53.346;-6.554;2023-03-04T03:13:24;102559.02;;;8.95;40.49
40372;BME280;28564;53.346;-6.554;2023-03-04T03:15:51;102557.71;;;8.95;40.48
40372;BME280;28564;53.346;-6.554;2023-03-04T03:18:18;102556.98;;;9.17;40.50
40372;BME280;28564;53.346;-6.554;2023-03-04T03:20:46;102555.31;;;8.94;40.49
40372;BME280;28564;53.346;-6.554;2023-03-04T03:23:13;102554.43;;;8.94;40.48
40372;BME280;28564;53.346;-6.554;2023-03-04T03:25:40;102553.90;;;8.92;40.45
40372;BME280;28564;53.346;-6.554;2023-03-04T03:28:08;102550.65;;;8.88;40.40
40372;BME280;28564;53.346;-6.554;2023-03-04T03:30:35;102551.27;;;8.83;40.33
40372;BME280;28564;53.346;-6.554;2023-03-04T03:33:02;102548.85;;;8.76;40.40
40372;BME280;28564;53.346;-6.554;2023-03-04T03:35:29;102548.57;;;8.73;40.47
40372;BME280;28564;53.346;-6.554;2023-03-04T03:37:57;102547.23;;;8.73;40.50
40372;BME280;28564;53.346;-6.554;2023-03-04T03:40:24;102543.95;;;8.70;40.47
40372;BME280;28564;53.346;-6.554;2023-03-04T03:42:51;102541.44;;;8.70;40.53
40372;BME280;28564;53.346;-6.554;2023-03-04T03:45:19;102537.23;;;8.70;40.53
40372;BME280;28564;53.346;-6.554;2023-03-04T03:47:46;102533.54;;;8.65;40.43
40372;BME280;28564;53.346;-6.554;2023-03-04T03:50:13;102538.35;;;8.80;40.54
40372;BME280;28564;53.346;-6.554;2023-03-04T03:52:41;102544.35;;;8.51;40.68
40372;BME280;28564;53.346;-6.554;2023-03-04T03:55:09;102547.51;;;8.72;40.73
40372;BME280;28564;53.346;-6.554;2023-03-04T03:57:36;102545.93;;;8.67;40.78
40372;BME280;28564;53.346;-6.554;2023-03-04T04:00:05;102546.29;;;8.66;40.80
40372;BME280;28564;53.346;-6.554;2023-03-04T04:02:32;102545.45;;;8.36;40.88
40372;BME280;28564;53.346;-6.554;2023-03-04T04:05:00;102544.12;;;8.38;40.96
40372;BME280;28564;53.346;-6.554;2023-03-04T04:07:27;102541.09;;;8.42;40.98
40372;BME280;28564;53.346;-6.554;2023-03-04T04:09:54;102544.68;;;8.44;40.98
40372;BME280;28564;53.346;-6.554;2023-03-04T04:12:22;102543.74;;;8.43;40.94
40372;BME280;28564;53.346;-6.554;2023-03-04T04:14:49;102541.60;;;8.63;40.95
40372;BME280;28564;53.346;-6.554;2023-03-04T04:17:16;102539.63;;;8.42;40.99
40372;BME280;28564;53.346;-6.554;2023-03-04T04:19:44;102538.71;;;8.66;41.01
40372;BME280;28564;53.346;-6.554;2023-03-04T04:22:14;102539.53;;;8.47;41.02
40372;BME280;28564;53.346;-6.554;2023-03-04T04:24:42;102540.50;;;8.68;40.99
40372;BME280;28564;53.346;-6.554;2023-03-04T04:27:10;102541.66;;;8.46;41.01
40372;BME280;28564;53.346;-6.554;2023-03-04T04:29:37;102542.49;;;8.69;40.96
40372;BME280;28564;53.346;-6.554;2023-03-04T04:32:06;102536.21;;;8.45;40.88
40372;BME280;28564;53.346;-6.554;2023-03-04T04:34:34;102536.14;;;8.68;40.91
40372;BME280;28564;53.346;-6.554;2023-03-04T04:37:01;102537.92;;;8.44;40.83
40372;BME280;28564;53.346;-6.554;2023-03-04T04:39:28;102540.91;;;8.50;40.80
40372;BME280;28564;53.346;-6.554;2023-03-04T04:41:55;102540.68;;;8.50;40.79
40372;BME280;28564;53.346;-6.554;2023-03-04T04:44:23;102540.25;;;8.50;40.81
40372;BME280;28564;53.346;-6.554;2023-03-04T04:46:50;102537.38;;;8.70;40.77
40372;BME280;28564;53.346;-6.554;2023-03-04T04:49:18;102535.31;;;8.46;40.71
40372;BME280;28564;53.346;-6.554;2023-03-04T04:51:45;102537.12;;;8.44;40.74
40372;BME280;28564;53.346;-6.554;2023-03-04T04:54:13;102536.91;;;8.42;40.63
40372;BME280;28564;53.346;-6.554;2023-03-04T04:56:40;102539.91;;;8.37;40.64
40372;BME280;28564;53.346;-6.554;2023-03-04T04:59:07;102542.40;;;8.35;40.62
40372;BME280;28564;53.346;-6.554;2023-03-04T05:01:35;102545.16;;;8.34;40.71
40372;BME280;28564;53.346;-6.554;2023-03-04T05:04:02;102547.98;;;8.35;40.72
40372;BME280;28564;53.346;-6.554;2023-03-04T05:06:29;102552.22;;;8.57;40.63
40372;BME280;28564;53.346;-6.554;2023-03-04T05:08:57;102556.14;;;8.57;40.64
40372;BME280;28564;53.346;-6.554;2023-03-04T05:11:24;102554.81;;;8.54;40.70
40372;BME280;28564;53.346;-6.554;2023-03-04T05:13:51;102555.21;;;8.34;40.72
40372;BME280;28564;53.346;-6.554;2023-03-04T05:16:19;102557.48;;;8.35;40.71
40372;BME280;28564;53.346;-6.554;2023-03-04T05:18:46;102557.49;;;8.32;40.69
40372;BME280;28564;53.346;-6.554;2023-03-04T05:21:14;102557.49;;;8.29;40.72
40372;BME280;28564;53.346;-6.554;2023-03-04T05:23:42;102554.44;;;8.50;40.74
40372;BME280;28564;53.346;-6.554;2023-03-04T05:26:12;102553.56;;;8.71;40.70
40372;BME280;28564;53.346;-6.554;2023-03-04T05:28:41;102552.85;;;8.46;40.72
40372;BME280;28564;53.346;-6.554;2023-03-04T05:31:08;102551.57;;;8.43;40.69
40372;BME280;28564;53.346;-6.554;2023-03-04T05:33:36;102551.18;;;8.37;40.74
40372;BME280;28564;53.346;-6.554;2023-03-04T05:36:05;102551.51;;;8.10;40.79
40372;BME280;28564;53.346;-6.554;2023-03-04T05:38:34;102552.51;;;8.49;40.85
40372;BME280;28564;53.346;-6.554;2023-03-04T05:41:04;102551.07;;;8.24;41.02
40372;BME280;28564;53.346;-6.554;2023-03-04T05:43:32;102549.33;;;8.27;41.06
40372;BME280;28564;53.346;-6.554;2023-03-04T05:46:00;102553.69;;;8.32;41.06
40372;BME280;28564;53.346;-6.554;2023-03-04T05:48:28;102557.72;;;8.15;41.01
40372;BME280;28564;53.346;-6.554;2023-03-04T05:50:57;102559.44;;;8.37;40.90
40372;BME280;28564;53.346;-6.554;2023-03-04T05:53:25;102563.05;;;8.16;40.88
40372;BME280;28564;53.346;-6.554;2023-03-04T05:55:52;102561.15;;;8.38;40.79
40372;BME280;28564;53.346;-6.554;2023-03-04T05:58:20;102559.94;;;8.13;40.77
40372;BME280;28564;53.346;-6.554;2023-03-04T06:00:47;102559.83;;;8.54;40.78
40372;BME280;28564;53.346;-6.554;2023-03-04T06:03:16;102561.36;;;8.31;40.79
40372;BME280;28564;53.346;-6.554;2023-03-04T06:05:44;102558.06;;;8.06;40.74
40372;BME280;28564;53.346;-6.554;2023-03-04T06:08:12;102558.73;;;8.28;40.71
40372;BME280;28564;53.346;-6.554;2023-03-04T06:10:40;102560.00;;;8.29;40.75
40372;BME280;28564;53.346;-6.554;2023-03-04T06:13:08;102561.83;;;8.30;40.74
40372;BME280;28564;53.346;-6.554;2023-03-04T06:15:36;102563.72;;;8.30;40.76
40372;BME280;28564;53.346;-6.554;2023-03-04T06:18:04;102565.74;;;8.29;40.73
40372;BME280;28564;53.346;-6.554;2023-03-04T06:20:31;102566.15;;;8.23;40.77
40372;BME280;28564;53.346;-6.554;2023-03-04T06:22:58;102566.24;;;8.18;40.87
40372;BME280;28564;53.346;-6.554;2023-03-04T06:25:26;102568.13;;;8.16;40.92
40372;BME280;28564;53.346;-6.554;2023-03-04T06:27:53;102569.23;;;8.20;40.90
40372;BME280;28564;53.346;-6.554;2023-03-04T06:30:21;102569.61;;;8.45;40.88
40372;BME280;28564;53.346;-6.554;2023-03-04T06:32:48;102566.85;;;8.27;40.82
40372;BME280;28564;53.346;-6.554;2023-03-04T06:35:15;102565.74;;;8.30;40.75
40372;BME280;28564;53.346;-6.554;2023-03-04T06:37:43;102566.26;;;8.09;40.74
40372;BME280;28564;53.346;-6.554;2023-03-04T06:40:11;102568.79;;;8.11;40.67
40372;BME280;28564;53.346;-6.554;2023-03-04T06:42:39;102569.68;;;8.59;40.65
40372;BME280;28564;53.346;-6.554;2023-03-04T06:45:09;102570.98;;;8.16;40.59
40372;BME280;28564;53.346;-6.554;2023-03-04T06:47:36;102569.09;;;8.16;40.53
40372;BME280;28564;53.346;-6.554;2023-03-04T06:50:04;102565.72;;;8.14;40.47
40372;BME280;28564;53.346;-6.554;2023-03-04T06:52:31;102563.27;;;8.13;40.44
40372;BME280;28564;53.346;-6.554;2023-03-04T06:54:59;102567.25;;;8.35;40.42
40372;BME280;28564;53.346;-6.554;2023-03-04T06:57:26;102570.46;;;8.11;40.39
40372;BME280;28564;53.346;-6.554;2023-03-04T06:59:53;102566.58;;;8.32;40.40
40372;BME280;28564;53.346;-6.554;2023-03-04T07:02:21;102562.93;;;8.55;40.35
40372;BME280;28564;53.346;-6.554;2023-03-04T07:04:48;102556.83;;;8.53;40.33
40372;BME280;28564;53.346;-6.554;2023-03-04T07:07:15;102556.91;;;8.08;40.11
40372;BME280;28564;53.346;-6.554;2023-03-04T07:09:42;102559.29;;;8.03;40.21
40372;BME280;28564;53.346;-6.554;2023-03-04T07:12:10;102560.00;;;8.24;40.19
40372;BME280;28564;53.346;-6.554;2023-03-04T07:14:37;102561.37;;;8.00;40.22
40372;BME280;28564;53.346;-6.554;2023-03-04T07:17:04;102564.47;;;8.01;40.27
40372;BME280;28564;53.346;-6.554;2023-03-04T07:19:31;102565.52;;;8.49;40.28
40372;BME280;28564;53.346;-6.554;2023-03-04T07:21:59;102567.99;;;8.29;40.29
40372;BME280;28564;53.346;-6.554;2023-03-04T07:24:26;102564.68;;;8.29;40.16
40372;BME280;28564;53.346;-6.554;2023-03-04T07:26:53;102564.64;;;8.04;40.08
40372;BME280;28564;53.346;-6.554;2023-03-04T07:29:21;102565.87;;;8.45;40.08
40372;BME280;28564;53.346;-6.554;2023-03-04T07:31:48;102567.81;;;8.43;40.06
40372;BME280;28564;53.346;-6.554;2023-03-04T07:34:15;102566.76;;;8.01;40.11
40372;BME280;28564;53.346;-6.554;2023-03-04T07:36:43;102567.07;;;8.27;40.10
40372;BME280;28564;53.346;-6.554;2023-03-04T07:39:11;102568.87;;;8.29;40.01
40372;BME280;28564;53.346;-6.554;2023-03-04T07:41:39;102571.55;;;8.32;40.00
40372;BME280;28564;53.346;-6.554;2023-03-04T07:44:10;102575.55;;;8.36;40.00
40372;BME280;28564;53.346;-6.554;2023-03-04T07:46:38;102575.80;;;8.15;40.03
40372;BME280;28564;53.346;-6.554;2023-03-04T07:49:05;102574.29;;;8.40;39.97
40372;BME280;28564;53.346;-6.554;2023-03-04T07:51:33;102577.46;;;8.63;39.92
40372;BME280;28564;53.346;-6.554;2023-03-04T07:54:00;102579.20;;;8.40;39.78
40372;BME280;28564;53.346;-6.554;2023-03-04T07:56:29;102581.78;;;8.39;39.85
40372;BME280;28564;53.346;-6.554;2023-03-04T07:58:57;102585.80;;;8.39;39.81
40372;BME280;28564;53.346;-6.554;2023-03-04T08:01:27;102588.23;;;8.66;39.84
40372;BME280;28564;53.346;-6.554;2023-03-04T08:03:55;102591.13;;;8.24;39.83
40372;BME280;28564;53.346;-6.554;2023-03-04T08:06:23;102595.15;;;8.46;39.79
40372;BME280;28564;53.346;-6.554;2023-03-04T08:08:55;102598.79;;;8.23;39.80
40372;BME280;28564;53.346;-6.554;2023-03-04T08:11:22;102600.78;;;8.49;39.82
40372;BME280;28564;53.346;-6.554;2023-03-04T08:13:50;102600.93;;;8.31;39.81
40372;BME280;28564;53.346;-6.554;2023-03-04T08:16:18;102606.06;;;8.36;39.73
40372;BME280;28564;53.346;-6.554;2023-03-04T08:18:49;102604.97;;;8.41;39.70
40372;BME280;28564;53.346;-6.554;2023-03-04T08:21:18;102602.35;;;8.43;39.60
40372;BME280;28564;53.346;-6.554;2023-03-04T08:23:46;102599.11;;;8.49;39.45
40372;BME280;28564;53.346;-6.554;2023-03-04T08:26:16;102598.80;;;8.48;39.47
40372;BME280;28564;53.346;-6.554;2023-03-04T08:28:44;102597.80;;;8.47;39.46
40372;BME280;28564;53.346;-6.554;2023-03-04T08:31:12;102594.76;;;8.49;39.45
40372;BME280;28564;53.346;-6.554;2023-03-04T08:33:40;102594.93;;;8.70;39.47
40372;BME280;28564;53.346;-6.554;2023-03-04T08:36:08;102598.34;;;8.48;39.59
40372;BME280;28564;53.346;-6.554;2023-03-04T08:38:35;102599.35;;;8.48;39.66
40372;BME280;28564;53.346;-6.554;2023-03-04T08:41:04;102600.59;;;8.23;39.68
40372;BME280;28564;53.346;-6.554;2023-03-04T08:43:32;102606.31;;;8.51;39.67
40372;BME280;28564;53.346;-6.554;2023-03-04T08:46:00;102605.59;;;8.48;39.60
40372;BME280;28564;53.346;-6.554;2023-03-04T08:48:27;102603.56;;;8.52;39.52
40372;BME280;28564;53.346;-6.554;2023-03-04T08:50:54;102597.23;;;8.53;39.39
40372;BME280;28564;53.346;-6.554;2023-03-04T08:53:21;102592.89;;;8.60;39.43
40372;BME280;28564;53.346;-6.554;2023-03-04T08:55:50;102591.97;;;8.65;39.29
40372;BME280;28564;53.346;-6.554;2023-03-04T08:58:17;102592.01;;;8.71;39.34
40372;BME280;28564;53.346;-6.554;2023-03-04T09:00:47;102591.67;;;8.79;39.38
40372;BME280;28564;53.346;-6.554;2023-03-04T09:03:16;102589.88;;;8.89;39.27
40372;BME280;28564;53.346;-6.554;2023-03-04T09:05:44;102582.91;;;8.99;39.15
40372;BME280;28564;53.346;-6.554;2023-03-04T09:08:12;102580.84;;;9.07;38.99
40372;BME280;28564;53.346;-6.554;2023-03-04T09:10:39;102581.33;;;9.12;38.93
40372;BME280;28564;53.346;-6.554;2023-03-04T09:13:07;102583.14;;;9.16;38.83
40372;BME280;28564;53.346;-6.554;2023-03-04T09:15:34;102585.96;;;9.20;38.73
40372;BME280;28564;53.346;-6.554;2023-03-04T09:18:03;102586.24;;;8.96;38.53
40372;BME280;28564;53.346;-6.554;2023-03-04T09:20:31;102585.75;;;8.78;38.55
40372;BME280;28564;53.346;-6.554;2023-03-04T09:22:58;102585.59;;;9.00;38.45
40372;BME280;28564;53.346;-6.554;2023-03-04T09:25:25;102586.98;;;9.32;38.53
40372;BME280;28564;53.346;-6.554;2023-03-04T09:27:53;102589.17;;;9.34;38.24
40372;BME280;28564;53.346;-6.554;2023-03-04T09:30:20;102591.94;;;8.92;38.29
40372;BME280;28564;53.346;-6.554;2023-03-04T09:32:47;102593.06;;;9.16;38.12
40372;BME280;28564;53.346;-6.554;2023-03-04T09:35:14;102595.69;;;9.47;38.12
40372;BME280;28564;53.346;-6.554;2023-03-04T09:37:41;102596.73;;;9.27;38.14
40372;BME280;28564;53.346;-6.554;2023-03-04T09:40:16;102600.67;;;9.28;38.14
40372;BME280;28564;53.346;-6.554;2023-03-04T09:42:47;102604.16;;;9.12;38.13
40372;BME280;28564;53.346;-6.554;2023-03-04T09:45:18;102606.02;;;9.36;37.97
40372;BME280;28564;53.346;-6.554;2023-03-04T09:47:48;102606.93;;;9.18;38.00
40372;BME280;28564;53.346;-6.554;2023-03-04T09:50:17;102607.74;;;9.24;37.87
40372;BME280;28564;53.346;-6.554;2023-03-04T09:52:58;102608.45;;;9.30;37.75
40372;BME280;28564;53.346;-6.554;2023-03-04T09:55:34;102610.97;;;9.56;37.69
40372;BME280;28564;53.346;-6.554;2023-03-04T09:58:09;102609.56;;;9.40;37.73
40372;BME280;28564;53.346;-6.554;2023-03-04T10:00:41;102607.60;;;9.44;37.78
40372;BME280;28564;53.346;-6.554;2023-03-04T10:03:15;102607.01;;;9.51;37.69
40372;BME280;28564;53.346;-6.554;2023-03-04T10:05:50;102612.60;;;9.58;37.55
40372;BME280;28564;53.346;-6.554;2023-03-04T10:08:33;102607.50;;;9.58;37.40
40372;BME280;28564;53.346;-6.554;2023-03-04T10:11:10;102603.74;;;9.49;37.38
40372;BME280;28564;53.346;-6.554;2023-03-04T10:13:45;102602.62;;;9.49;37.38
40372;BME280;28564;53.346;-6.554;2023-03-04T10:16:20;102598.88;;;9.47;37.39
40372;BME280;28564;53.346;-6.554;2023-03-04T10:18:51;102601.05;;;9.49;37.33
40372;BME280;28564;53.346;-6.554;2023-03-04T10:21:25;102597.46;;;9.55;37.36
40372;BME280;28564;53.346;-6.554;2023-03-04T10:23:54;102592.70;;;9.60;37.34
40372;BME280;28564;53.346;-6.554;2023-03-04T10:26:28;102592.77;;;9.61;37.31
40372;BME280;28564;53.346;-6.554;2023-03-04T10:28:56;102588.83;;;9.65;37.24
40372;BME280;28564;53.346;-6.554;2023-03-04T10:31:30;102584.10;;;9.73;37.20
40372;BME280;28564;53.346;-6.554;2023-03-04T10:33:58;102584.07;;;9.86;37.23
40372;BME280;28564;53.346;-6.554;2023-03-04T10:36:37;102581.45;;;9.95;37.06
40372;BME280;28564;53.346;-6.554;2023-03-04T10:39:09;102580.39;;;9.74;37.09
40372;BME280;28564;53.346;-6.554;2023-03-04T10:41:42;102579.66;;;9.83;37.10
40372;BME280;28564;53.346;-6.554;2023-03-04T10:44:15;102576.99;;;10.21;37.00
40372;BME280;28564;53.346;-6.554;2023-03-04T10:46:44;102578.16;;;9.96;36.91
40372;BME280;28564;53.346;-6.554;2023-03-04T10:49:13;102575.83;;;10.20;36.80
40372;BME280;28564;53.346;-6.554;2023-03-04T10:51:43;102576.12;;;10.13;36.67
40372;BME280;28564;53.346;-6.554;2023-03-04T10:54:21;102574.00;;;9.84;36.62
40372;BME280;28564;53.346;-6.554;2023-03-04T10:56:56;102572.08;;;9.89;36.63
40372;BME280;28564;53.346;-6.554;2023-03-04T10:59:38;102572.70;;;9.93;36.56
40372;BME280;28564;53.346;-6.554;2023-03-04T11:02:16;102573.05;;;10.02;36.59
40372;BME280;28564;53.346;-6.554;2023-03-04T11:04:49;102573.84;;;10.01;36.47
40372;BME280;28564;53.346;-6.554;2023-03-04T11:07:16;102574.89;;;10.00;36.60
40372;BME280;28564;53.346;-6.554;2023-03-04T11:09:44;102575.48;;;9.80;36.57
40372;BME280;28564;53.346;-6.554;2023-03-04T11:12:14;102571.30;;;10.06;36.56
40372;BME280;28564;53.346;-6.554;2023-03-04T11:14:45;102573.43;;;10.33;36.42
40372;BME280;28564;53.346;-6.554;2023-03-04T11:17:20;102572.38;;;10.08;36.38
40372;BME280;28564;53.346;-6.554;2023-03-04T11:19:52;102574.07;;;10.07;36.31
40372;BME280;28564;53.346;-6.554;2023-03-04T11:22:23;102572.27;;;10.30;36.28
40372;BME280;28564;53.346;-6.554;2023-03-04T11:24:57;102568.30;;;9.72;36.39
40372;BME280;28564;53.346;-6.554;2023-03-04T11:27:34;102565.04;;;10.26;36.35
40372;BME280;28564;53.346;-6.554;2023-03-04T11:30:18;102566.44;;;10.04;36.24
40372;BME280;28564;53.346;-6.554;2023-03-04T11:32:49;102563.55;;;10.08;36.06
40372;BME280;28564;53.346;-6.554;2023-03-04T11:35:22;102559.63;;;10.08;36.09
40372;BME280;28564;53.346;-6.554;2023-03-04T11:37:58;102558.21;;;10.15;36.15
40372;BME280;28564;53.346;-6.554;2023-03-04T11:40:33;102556.83;;;10.23;36.10
40372;BME280;28564;53.346;-6.554;2023-03-04T11:43:06;102550.92;;;10.44;35.98
40372;BME280;28564;53.346;-6.554;2023-03-04T11:45:52;102547.42;;;10.12;35.74
40372;BME280;28564;53.346;-6.554;2023-03-04T11:48:37;102543.84;;;10.39;35.84
40372;BME280;28564;53.346;-6.554;2023-03-04T11:51:11;102546.28;;;10.44;35.62
40372;BME280;28564;53.346;-6.554;2023-03-04T11:53:53;102546.02;;;9.98;35.62
40372;BME280;28564;53.346;-6.554;2023-03-04T11:56:30;102543.49;;;10.10;35.61
40372;BME280;28564;53.346;-6.554;2023-03-04T12:00:15;102540.44;;;10.39;35.40
40372;BME280;28564;53.346;-6.554;2023-03-04T12:03:00;102538.58;;;10.30;35.44
40372;BME280;28564;53.346;-6.554;2023-03-04T12:05:39;102538.56;;;10.43;35.35
40372;BME280;28564;53.346;-6.554;2023-03-04T12:08:29;102535.22;;;10.53;35.22
40372;BME280;28564;53.346;-6.554;2023-03-04T12:11:02;102532.24;;;10.61;35.18
40372;BME280;28564;53.346;-6.554;2023-03-04T12:13:41;102529.66;;;10.63;34.94
40372;BME280;28564;53.346;-6.554;2023-03-04T12:16:27;102529.48;;;10.68;34.97
40372;BME280;28564;53.346;-6.554;2023-03-04T12:19:07;102526.75;;;10.77;35.00
40372;BME280;28564;53.346;-6.554;2023-03-04T12:21:58;102524.70;;;10.80;35.02
40372;BME280;28564;53.346;-6.554;2023-03-04T12:24:37;102523.37;;;10.86;35.05
40372;BME280;28564;53.346;-6.554;2023-03-04T12:27:18;102523.93;;;10.90;34.96
40372;BME280;28564;53.346;-6.554;2023-03-04T12:29:55;102526.37;;;10.91;34.90
40372;BME280;28564;53.346;-6.554;2023-03-04T12:32:30;102523.96;;;10.97;34.93
40372;BME280;28564;53.346;-6.554;2023-03-04T12:35:18;102519.74;;;11.01;34.88
40372;BME280;28564;53.346;-6.554;2023-03-04T12:37:58;102515.31;;;10.62;34.79
40372;BME280;28564;53.346;-6.554;2023-03-04T12:40:35;102511.38;;;11.17;34.76
40372;BME280;28564;53.346;-6.554;2023-03-04T12:43:13;102507.75;;;11.21;34.62
40372;BME280;28564;53.346;-6.554;2023-03-04T12:45:48;102506.26;;;11.20;34.56
40372;BME280;28564;53.346;-6.554;2023-03-04T12:48:28;102504.05;;;11.21;34.52
40372;BME280;28564;53.346;-6.554;2023-03-04T12:51:06;102501.94;;;11.14;34.29
40372;BME280;28564;53.346;-6.554;2023-03-04T12:53:41;102499.95;;;11.09;34.36
40372;BME280;28564;53.346;-6.554;2023-03-04T12:56:21;102493.50;;;11.09;34.43
40372;BME280;28564;53.346;-6.554;2023-03-04T12:58:50;102493.36;;;10.92;34.42
40372;BME280;28564;53.346;-6.554;2023-03-04T13:01:23;102492.72;;;11.15;34.43